Time;durP1;ratioP1;P1;durP2;ratioP2;P2;SDS_P1;SDS_P2;PMS_P1;PMS_P2;Temp;Humidity;BMP_temperature;BMP_pressure;BME280_temperature;BME280_humidity;BME280_pressure;Samples;Min_cycle;Max_cycle;Signal;HPM_P1;HPM_P2
2022/10/30 06:02:37;;;;;;;13.88;7.50;;;11.40;99.90;;;;;;5449376;23;20129;-77
2022/10/30 06:05:06;;;;;;;17.23;7.00;;;11.40;99.90;;;;;;4999987;28;20030;-74
2022/10/30 06:07:33;;;;;;;14.77;7.72;;;11.40;99.90;;;;;;5002997;28;20204;-75
2022/10/30 06:10:02;;;;;;;16.23;7.32;;;11.40;99.90;;;;;;4983370;28;20030;-74
2022/10/30 06:12:55;;;;;;;13.90;5.97;;;11.30;99.90;;;;;;4983122;28;20027;-74
2022/10/30 06:15:31;;;;;;;17.60;7.78;;;11.30;99.90;;;;;;4966682;28;20181;-73
2022/10/30 06:17:57;;;;;;;22.02;14.27;;;11.30;99.90;;;;;;4971644;28;20045;-75
2022/10/30 06:20:37;;;;;;;24.33;12.60;;;11.40;99.90;;;;;;4961362;28;20343;-73
2022/10/30 06:23:22;;;;;;;17.67;8.65;;;11.40;99.90;;;;;;4983226;28;20031;-74
2022/10/30 06:25:59;;;;;;;17.40;8.10;;;11.40;99.90;;;;;;4982985;28;20058;-75
2022/10/30 06:28:32;;;;;;;17.10;8.68;;;11.50;99.90;;;;;;4982884;28;20031;-73
2022/10/30 06:30:58;;;;;;;21.90;8.63;;;11.50;99.90;;;;;;4984388;28;20034;-74
2022/10/30 06:33:26;;;;;;;15.82;7.35;;;11.50;99.90;;;;;;4982211;28;20049;-76
2022/10/30 06:35:53;;;;;;;14.55;6.45;;;11.60;99.90;;;;;;4983386;28;20034;-75
2022/10/30 06:38:19;;;;;;;14.52;6.53;;;11.60;99.90;;;;;;4951195;28;20181;-74
2022/10/30 06:40:48;;;;;;;11.43;6.57;;;11.60;99.90;;;;;;4967213;28;20030;-76
2022/10/30 06:43:48;;;;;;;13.25;7.07;;;11.70;99.90;;;;;;4968618;28;20332;-74
2022/10/30 06:46:20;;;;;;;16.50;6.72;;;11.80;99.90;;;;;;4966610;28;20042;-74
2022/10/30 06:48:48;;;;;;;13.20;6.43;;;11.90;99.90;;;;;;4950570;28;20044;-75
2022/10/30 06:51:15;;;;;;;16.02;6.13;;;12.00;99.90;;;;;;4966359;28;20036;-74
2022/10/30 06:53:42;;;;;;;11.95;5.53;;;12.20;99.90;;;;;;4966063;28;20084;-73
2022/10/30 06:56:39;;;;;;;14.98;6.13;;;12.30;99.90;;;;;;4996699;28;20062;-75
2022/10/30 06:59:23;;;;;;;13.27;6.40;;;12.50;99.90;;;;;;4987498;28;20093;-76
2022/10/30 07:02:14;;;;;;;;;;;12.60;99.90;;;;;;4982164;28;20078;-76
2022/10/30 07:04:47;;;;;;;17.67;5.47;;;12.70;99.90;;;;;;4965538;28;19985;-75
2022/10/30 07:07:13;;;;;;;15.65;6.30;;;12.80;99.90;;;;;;4981996;28;20038;-75
2022/10/30 07:09:39;;;;;;;12.35;5.80;;;12.90;99.90;;;;;;4967414;28;20347;-77
2022/10/30 07:12:06;;;;;;;12.20;5.38;;;12.90;99.90;;;;;;4966284;28;20026;-74
2022/10/30 07:15:08;;;;;;;12.60;5.80;;;13.00;99.90;;;;;;4966861;28;20026;-75
2022/10/30 07:17:45;;;;;;;13.80;6.13;;;13.20;99.90;;;;;;4983302;28;20026;-75
2022/10/30 07:20:29;;;;;;;14.80;5.78;;;13.30;99.90;;;;;;4965351;28;20299;-77
2022/10/30 07:22:56;;;;;;;10.25;5.45;;;13.30;99.90;;;;;;4962187;28;20144;-75
2022/10/30 07:25:25;;;;;;;15.63;5.82;;;13.40;99.90;;;;;;4977575;28;20035;-76
2022/10/30 07:28:05;;;;;;;10.90;5.50;;;13.50;99.90;;;;;;4987859;28;20268;-75
2022/10/30 07:30:37;;;;;;;12.10;5.78;;;13.50;99.90;;;;;;4958189;28;20424;-74
2022/10/30 07:33:17;;;;;;;13.02;5.63;;;13.60;99.90;;;;;;4946393;28;20023;-74
2022/10/30 07:36:09;;;;;;;11.43;5.40;;;13.60;99.90;;;;;;4948737;28;20058;-76
2022/10/30 07:38:58;;;;;;;11.25;5.20;;;13.70;99.90;;;;;;4973291;28;20117;-75
2022/10/30 07:41:29;;;;;;;10.07;5.18;;;13.70;99.90;;;;;;4961274;28;20029;-76
2022/10/30 07:44:20;;;;;;;12.55;5.15;;;13.80;99.90;;;;;;4950954;28;20070;-76
2022/10/30 07:46:54;;;;;;;11.73;4.53;;;13.90;99.90;;;;;;4961042;28;20062;-75
2022/10/30 07:49:28;;;;;;;18.02;5.90;;;14.00;99.90;;;;;;4951504;28;20107;-77
2022/10/30 07:51:58;;;;;;;10.75;4.80;;;14.10;99.90;;;;;;4964611;28;20031;-76
2022/10/30 07:54:23;;;;;;;11.73;4.70;;;14.30;99.90;;;;;;4948748;28;20359;-75
2022/10/30 07:56:50;;;;;;;13.80;5.30;;;14.40;99.90;;;;;;4964390;28;20023;-76
2022/10/30 07:59:34;;;;;;;13.88;5.07;;;14.50;99.90;;;;;;4975423;28;20109;-75
2022/10/30 08:02:32;;;;;;;13.80;5.07;;;14.70;99.90;;;;;;4938477;28;20102;-75
2022/10/30 08:05:27;;;;;;;11.02;4.63;;;14.80;99.90;;;;;;4911874;28;20052;-75
2022/10/30 08:08:07;;;;;;;28.35;19.60;;;14.90;99.90;;;;;;4981684;28;20057;-74
2022/10/30 08:10:33;;;;;;;19.27;10.52;;;14.90;99.90;;;;;;4965438;28;20066;-74
2022/10/30 08:12:59;;;;;;;14.85;5.68;;;14.90;99.90;;;;;;4967982;28;20042;-72
2022/10/30 08:15:25;;;;;;;10.07;4.55;;;15.00;99.90;;;;;;4966352;28;20026;-74
2022/10/30 08:17:51;;;;;;;11.13;4.47;;;15.00;99.90;;;;;;4964617;28;20378;-74
2022/10/30 08:20:21;;;;;;;11.77;4.50;;;15.10;99.90;;;;;;4950004;28;20031;-72
2022/10/30 08:22:55;;;;;;;12.75;4.97;;;15.20;99.90;;;;;;4979986;28;20046;-73
2022/10/30 08:25:27;;;;;;;10.65;4.25;;;15.30;99.90;;;;;;4965001;28;20035;-71
2022/10/30 08:27:54;;;;;;;10.85;4.65;;;15.30;99.90;;;;;;4965552;28;20038;-72
2022/10/30 08:30:40;;;;;;;12.07;5.22;;;15.30;99.90;;;;;;4967508;28;20031;-80
2022/10/30 08:33:32;;;;;;;12.52;5.15;;;15.30;99.90;;;;;;4964533;29;20050;-78
2022/10/30 08:36:57;;;;;;;14.55;6.25;;;15.40;99.90;;;;;;4975614;28;20038;-76
2022/10/30 08:39:23;;;;;;;14.75;5.85;;;15.60;99.90;;;;;;4909865;29;20028;-77
2022/10/30 08:42:19;;;;;;;24.75;6.57;;;15.60;99.90;;;;;;4950153;28;20035;-79
2022/10/30 08:44:54;;;;;;;11.95;4.72;;;15.70;99.90;;;;;;4973321;28;20023;-78
2022/10/30 08:47:45;;;;;;;10.52;5.15;;;15.80;99.90;;;;;;4951764;28;20328;-75
2022/10/30 08:50:12;;;;;;;12.85;4.78;;;15.90;99.90;;;;;;4966722;28;20260;-75
2022/10/30 08:52:39;;;;;;;15.05;6.65;;;15.90;99.90;;;;;;4966764;28;20023;-74
2022/10/30 08:55:06;;;;;;;14.68;6.28;;;16.00;99.90;;;;;;4967137;28;20030;-74
2022/10/30 08:57:36;;;;;;;14.20;6.15;;;16.00;99.90;;;;;;4966462;28;20031;-74
2022/10/30 09:00:04;;;;;;;13.57;6.32;;;16.10;99.90;;;;;;4967498;28;20038;-75
2022/10/30 09:02:53;;;;;;;10.88;4.90;;;16.10;99.90;;;;;;4972000;28;20123;-74
2022/10/30 09:05:39;;;;;;;17.67;5.20;;;16.20;99.90;;;;;;4943860;28;20220;-76
2022/10/30 09:08:14;;;;;;;10.90;4.00;;;16.30;99.90;;;;;;4984597;28;20038;-75
2022/10/30 09:10:59;;;;;;;12.68;5.13;;;16.30;99.90;;;;;;4977269;28;20039;-75
2022/10/30 09:13:26;;;;;;;15.35;5.53;;;16.40;99.90;;;;;;4964729;29;20320;-74
2022/10/30 09:15:53;;;;;;;12.85;5.05;;;16.50;99.90;;;;;;4963477;29;20031;-75
2022/10/30 09:18:19;;;;;;;13.48;5.22;;;16.50;99.90;;;;;;4963614;29;20023;-75
2022/10/30 09:20:48;;;;;;;13.75;5.03;;;16.70;99.90;;;;;;4963244;29;20066;-76
2022/10/30 09:23:14;;;;;;;15.27;5.38;;;16.80;99.90;;;;;;4963620;29;20088;-76
2022/10/30 09:25:40;;;;;;;12.43;4.93;;;16.90;99.90;;;;;;4962814;29;20158;-74
2022/10/30 09:28:23;;;;;;;13.30;4.75;;;17.00;99.90;;;;;;4965934;28;20293;-74
2022/10/30 09:31:08;;;;;;;14.25;5.53;;;17.10;99.90;;;;;;4964524;28;20257;-74
2022/10/30 09:33:36;;;;;;;13.38;5.18;;;17.20;99.90;;;;;;4947156;29;20034;-75
2022/10/30 09:36:37;;;;;;;14.50;5.00;;;17.30;99.90;;;;;;4956973;28;20030;-76
2022/10/30 09:39:06;;;;;;;16.08;5.55;;;17.50;99.90;;;;;;4966612;28;20029;-77
2022/10/30 09:41:51;;;;;;;12.95;4.80;;;17.50;99.90;;;;;;4982625;28;20102;-77
2022/10/30 09:44:38;;;;;;;10.98;4.60;;;17.70;99.90;;;;;;4966465;28;20054;-76
2022/10/30 09:47:17;;;;;;;15.73;5.30;;;17.80;99.90;;;;;;4965760;28;20134;-75
2022/10/30 09:49:51;;;;;;;11.70;4.80;;;17.90;99.90;;;;;;4963090;29;20157;-74
2022/10/30 09:52:25;;;;;;;10.02;4.68;;;18.00;99.90;;;;;;4963580;28;20264;-73
2022/10/30 09:55:03;;;;;;;12.77;5.10;;;18.20;99.90;;;;;;4962670;29;20054;-74
2022/10/30 09:57:54;;;;;;;15.32;4.93;;;18.30;99.90;;;;;;4966407;28;20023;-76
2022/10/30 10:00:41;;;;;;;12.27;4.65;;;18.50;99.90;;;;;;4982386;28;20054;-75
2022/10/30 10:03:34;;;;;;;12.50;4.55;;;18.60;99.90;;;;;;4965918;28;20054;-74
2022/10/30 10:06:32;;;;;;;10.30;4.80;;;18.80;99.90;;;;;;4981659;28;20232;-75
2022/10/30 10:09:21;;;;;;;9.82;4.22;;;19.00;99.90;;;;;;4978829;28;20019;-74
2022/10/30 10:12:10;;;;;;;9.18;3.90;;;19.20;99.90;;;;;;4980602;28;20041;-74
2022/10/30 10:14:41;;;;;;;10.35;4.28;;;19.40;99.90;;;;;;4965422;28;20095;-75
2022/10/30 10:17:13;;;;;;;12.70;5.05;;;19.50;99.90;;;;;;4967396;28;20050;-74
2022/10/30 10:19:46;;;;;;;10.80;4.25;;;19.70;99.90;;;;;;4963247;28;20078;-74
2022/10/30 10:22:41;;;;;;;11.82;4.50;;;19.80;99.90;;;;;;4977968;28;20085;-75
2022/10/30 10:25:13;;;;;;;15.98;4.85;;;20.00;99.90;;;;;;4973982;28;20039;-75
2022/10/30 10:28:24;;;;;;;15.45;6.32;;;20.30;99.90;;;;;;4978957;28;20026;-73
2022/10/30 10:31:02;;;;;;;11.80;6.20;;;20.60;99.90;;;;;;4948572;28;20035;-74
2022/10/30 10:34:02;;;;;;;11.13;5.68;;;21.00;99.90;;;;;;4971873;28;20034;-74
2022/10/30 10:36:45;;;;;;;12.45;4.18;;;21.40;99.90;;;;;;4975264;28;20057;-75
2022/10/30 10:39:25;;;;;;;14.57;6.00;;;21.70;99.90;;;;;;4975361;28;20039;-74
2022/10/30 10:41:52;;;;;;;11.05;4.00;;;22.00;99.90;;;;;;4962840;28;20035;-75
2022/10/30 10:44:44;;;;;;;12.35;4.95;;;22.40;99.90;;;;;;4963404;28;20053;-74
2022/10/30 10:47:55;;;;;;;15.32;3.83;;;22.80;99.70;;;;;;4959935;28;20039;-74
2022/10/30 10:50:26;;;;;;;12.25;3.90;;;23.10;98.60;;;;;;4910439;29;20048;-74
2022/10/30 10:53:38;;;;;;;9.73;4.25;;;23.40;97.50;;;;;;4962935;28;20035;-74
2022/10/30 10:56:07;;;;;;;13.60;5.45;;;23.90;96.90;;;;;;4894367;29;20049;-74
2022/10/30 10:58:43;;;;;;;10.50;4.43;;;24.40;95.70;;;;;;4885588;29;20033;-75
2022/10/30 11:01:17;;;;;;;10.50;4.75;;;24.80;94.90;;;;;;4885798;29;20154;-74
2022/10/30 11:03:58;;;;;;;11.40;4.45;;;25.30;94.30;;;;;;4903165;29;20036;-75
2022/10/30 11:06:32;;;;;;;13.82;5.68;;;25.80;93.00;;;;;;4904345;29;20037;-73
2022/10/30 11:09:10;;;;;;;13.52;4.40;;;26.20;92.00;;;;;;4905259;29;20083;-74
2022/10/30 11:11:36;;;;;;;33.22;14.52;;;26.60;91.40;;;;;;4886173;29;20149;-75
2022/10/30 11:14:04;;;;;;;12.63;4.60;;;26.90;90.90;;;;;;4884814;29;20048;-74
2022/10/30 11:16:36;;;;;;;10.15;4.13;;;27.60;89.60;;;;;;4885318;29;20037;-75
2022/10/30 11:19:06;;;;;;;13.27;5.35;;;28.10;88.40;;;;;;4876318;29;20060;-76
2022/10/30 11:21:38;;;;;;;10.57;4.10;;;28.80;85.80;;;;;;4902697;29;20099;-76
2022/10/30 11:24:30;;;;;;;10.43;3.67;;;29.20;84.20;;;;;;4904035;29;20032;-75
2022/10/30 11:27:14;;;;;;;9.68;4.03;;;29.50;83.00;;;;;;4939059;29;20099;-75
2022/10/30 11:29:50;;;;;;;9.30;3.55;;;30.00;81.20;;;;;;4979143;28;20090;-76
2022/10/30 11:32:21;;;;;;;8.10;3.58;;;30.80;80.50;;;;;;4982148;28;20023;-76
2022/10/30 11:35:01;;;;;;;8.70;3.15;;;31.50;77.70;;;;;;4965225;28;20039;-74
2022/10/30 11:37:34;;;;;;;11.55;3.20;;;32.40;75.40;;;;;;4963203;28;20031;-75
2022/10/30 11:40:12;;;;;;;9.02;4.18;;;32.80;74.60;;;;;;4981438;28;20470;-74
2022/10/30 11:42:43;;;;;;;11.98;5.15;;;32.80;72.60;;;;;;4981797;28;20323;-73
2022/10/30 11:45:17;;;;;;;13.20;4.82;;;32.90;71.60;;;;;;4981973;28;20090;-74
2022/10/30 11:47:50;;;;;;;9.18;4.35;;;32.50;70.70;;;;;;4967627;28;20035;-74
2022/10/30 11:50:31;;;;;;;10.40;3.78;;;32.70;70.50;;;;;;4962969;28;20035;-74
2022/10/30 11:53:11;;;;;;;8.60;3.03;;;32.50;69.50;;;;;;4975626;28;20301;-74
2022/10/30 11:55:40;;;;;;;9.32;3.60;;;32.10;69.80;;;;;;4973342;28;20039;-73
2022/10/30 11:58:10;;;;;;;9.07;4.40;;;31.80;69.90;;;;;;4979014;28;20066;-75
2022/10/30 12:00:39;;;;;;;9.80;4.40;;;31.10;71.20;;;;;;4963067;28;20098;-75
2022/10/30 12:03:38;;;;;;;12.10;5.63;;;30.60;72.20;;;;;;4978324;28;20051;-73
2022/10/30 12:06:30;;;;;;;11.10;5.15;;;30.20;73.00;;;;;;4985269;28;20066;-73
2022/10/30 12:09:18;;;;;;;12.35;4.40;;;29.60;74.10;;;;;;4955093;28;20042;-74
2022/10/30 12:11:44;;;;;;;11.13;3.88;;;28.80;75.40;;;;;;4984431;28;20031;-71
2022/10/30 12:14:28;;;;;;;9.95;4.03;;;28.60;76.30;;;;;;4985248;28;20359;-72
2022/10/30 12:16:56;;;;;;;10.25;4.07;;;28.20;77.00;;;;;;4985105;28;20039;-74
2022/10/30 12:19:23;;;;;;;12.63;4.30;;;27.70;79.20;;;;;;4985982;28;20054;-73
2022/10/30 12:21:52;;;;;;;9.00;3.80;;;27.80;78.70;;;;;;4967911;28;20045;-74
2022/10/30 12:24:29;;;;;;;12.35;4.50;;;27.70;78.80;;;;;;4985736;28;20090;-74
2022/10/30 12:26:56;;;;;;;10.05;4.65;;;27.60;80.50;;;;;;4984730;28;20057;-74
2022/10/30 12:29:36;;;;;;;9.50;3.88;;;27.70;80.10;;;;;;4985456;28;20027;-73
2022/10/30 12:32:07;;;;;;;10.57;4.00;;;27.90;79.40;;;;;;4984646;28;20101;-73
2022/10/30 12:34:55;;;;;;;8.38;3.70;;;28.00;79.30;;;;;;4972543;28;20069;-74
2022/10/30 12:37:27;;;;;;;10.15;4.75;;;28.50;78.50;;;;;;4984924;28;20085;-73
2022/10/30 12:40:07;;;;;;;8.20;3.60;;;28.80;79.20;;;;;;4987361;28;20019;-73
2022/10/30 12:42:44;;;;;;;14.38;6.90;;;29.20;78.00;;;;;;4987754;28;20031;-73
2022/10/30 12:45:31;;;;;;;8.38;4.57;;;29.70;75.90;;;;;;4987441;28;20094;-72
2022/10/30 12:48:28;;;;;;;13.27;7.32;;;29.50;75.80;;;;;;4985548;28;20035;-74
2022/10/30 12:51:16;;;;;;;9.50;4.53;;;29.60;75.40;;;;;;4984371;28;20035;-73
2022/10/30 12:53:57;;;;;;;11.13;4.78;;;29.30;76.10;;;;;;4976669;28;20098;-74
2022/10/30 12:56:32;;;;;;;10.88;5.15;;;29.20;77.60;;;;;;4984684;28;20035;-74
2022/10/30 12:59:19;;;;;;;14.07;8.57;;;29.30;76.40;;;;;;4985652;28;20030;-74
2022/10/30 13:01:54;;;;;;;14.80;7.73;;;29.30;75.80;;;;;;4985029;28;20375;-77
2022/10/30 13:04:49;;;;;;;12.48;4.40;;;29.10;76.40;;;;;;4985129;28;20034;-76
2022/10/30 13:07:22;;;;;;;10.65;4.70;;;29.00;76.80;;;;;;4982000;28;20122;-74
2022/10/30 13:10:10;;;;;;;10.38;4.15;;;29.00;76.60;;;;;;4980218;28;20031;-75
2022/10/30 13:12:38;;;;;;;9.50;4.18;;;29.10;76.80;;;;;;4972030;28;20025;-76
2022/10/30 13:15:18;;;;;;;9.48;4.00;;;29.30;76.00;;;;;;4983898;28;20097;-74
2022/10/30 13:17:43;;;;;;;9.45;3.55;;;29.50;75.30;;;;;;4984449;28;20150;-75
2022/10/30 13:20:15;;;;;;;10.75;3.90;;;29.30;75.70;;;;;;4984147;28;20297;-75
2022/10/30 13:23:04;;;;;;;8.02;3.58;;;29.50;75.60;;;;;;4984737;28;20375;-75
2022/10/30 13:25:42;;;;;;;13.40;8.10;;;29.40;75.60;;;;;;4984323;28;20027;-75
2022/10/30 13:28:24;;;;;;;8.93;4.25;;;29.20;76.20;;;;;;4984420;28;20257;-75
2022/10/30 13:31:14;;;;;;;10.35;4.15;;;29.30;76.30;;;;;;4984347;28;20030;-75
2022/10/30 13:33:47;;;;;;;8.93;3.78;;;29.40;75.70;;;;;;4965294;28;20090;-72
2022/10/30 13:36:31;;;;;;;13.40;5.20;;;29.50;76.30;;;;;;4984922;28;20053;-74
2022/10/30 13:39:33;;;;;;;10.93;4.57;;;29.40;75.60;;;;;;4961368;28;20026;-76
2022/10/30 13:42:03;;;;;;;8.32;3.80;;;29.30;75.90;;;;;;4967932;28;20050;-73
2022/10/30 13:44:32;;;;;;;9.15;3.55;;;29.30;76.50;;;;;;4965716;29;20030;-73
2022/10/30 13:47:19;;;;;;;9.57;4.30;;;29.60;75.40;;;;;;4971620;28;20046;-73
2022/10/30 13:50:15;;;;;;;10.38;4.13;;;29.70;75.50;;;;;;4964059;29;20309;-74
2022/10/30 13:52:48;;;;;;;10.90;6.80;;;30.10;74.50;;;;;;4965132;28;20357;-74
2022/10/30 13:55:24;;;;;;;18.60;14.60;;;30.10;74.40;;;;;;4982145;28;20049;-73
2022/10/30 13:58:07;;;;;;;8.00;4.80;;;29.70;74.40;;;;;;4967622;28;20046;-75
2022/10/30 14:01:03;;;;;;;7.68;3.60;;;29.90;74.10;;;;;;4967697;28;20085;-75
2022/10/30 14:03:50;;;;;;;12.90;4.40;;;30.00;74.10;;;;;;4983050;28;20070;-75
2022/10/30 14:06:42;;;;;;;7.97;3.33;;;30.10;74.00;;;;;;4984467;28;20277;-74
2022/10/30 14:09:14;;;;;;;10.88;5.75;;;30.10;73.40;;;;;;4957933;28;20099;-76
2022/10/30 14:11:39;;;;;;;10.50;3.85;;;30.10;74.00;;;;;;4965089;28;20027;-75
2022/10/30 14:14:08;;;;;;;8.60;4.03;;;30.20;73.20;;;;;;4947798;29;20057;-74
2022/10/30 14:16:39;;;;;;;9.70;3.50;;;30.20;76.20;;;;;;4947875;28;20039;-74
2022/10/30 14:19:10;;;;;;;7.20;3.92;;;30.10;75.00;;;;;;4964896;28;20198;-75
2022/10/30 14:21:58;;;;;;;7.88;3.00;;;29.70;75.80;;;;;;4948410;28;20043;-73
2022/10/30 14:24:30;;;;;;;8.35;2.95;;;29.10;74.00;;;;;;4947686;28;20034;-73
2022/10/30 14:27:02;;;;;;;12.30;4.18;;;28.60;75.60;;;;;;4963837;28;20058;-74
2022/10/30 14:29:34;;;;;;;9.00;3.88;;;28.20;75.30;;;;;;4964611;28;20345;-73
2022/10/30 14:32:16;;;;;;;8.93;3.53;;;27.80;75.60;;;;;;4972481;28;20272;-74
2022/10/30 14:35:06;;;;;;;8.75;3.22;;;27.60;76.70;;;;;;4983871;28;20080;-74
2022/10/30 14:37:31;;;;;;;8.05;3.22;;;27.30;77.00;;;;;;4983860;28;20034;-75
2022/10/30 14:40:33;;;;;;;13.43;4.10;;;27.10;78.60;;;;;;4983296;28;20038;-74
2022/10/30 14:43:09;;;;;;;8.27;3.90;;;26.90;79.60;;;;;;4963071;28;20309;-74
2022/10/30 14:45:51;;;;;;;12.18;3.90;;;26.70;81.80;;;;;;4964460;28;20099;-74
2022/10/30 14:48:36;;;;;;;8.85;3.67;;;26.50;81.70;;;;;;4982125;28;20065;-74
2022/10/30 14:51:21;;;;;;;11.52;4.72;;;26.30;82.00;;;;;;4983280;28;20038;-74
2022/10/30 14:54:04;;;;;;;13.38;4.97;;;26.00;82.80;;;;;;4983887;28;20098;-75
2022/10/30 14:56:41;;;;;;;10.90;5.18;;;25.90;83.90;;;;;;4983614;28;20042;-74
2022/10/30 14:59:31;;;;;;;13.13;5.78;;;25.50;85.10;;;;;;4983172;28;20037;-75
2022/10/30 15:02:29;;;;;;;15.35;7.63;;;25.30;86.50;;;;;;4982788;28;20077;-74
2022/10/30 15:05:19;;;;;;;12.38;7.03;;;25.10;88.20;;;;;;4983112;28;20669;-75
2022/10/30 15:08:10;;;;;;;26.98;11.55;;;24.90;90.60;;;;;;4970180;28;20078;-76
2022/10/30 15:10:44;;;;;;;72.03;27.98;;;24.70;90.90;;;;;;4977265;28;20066;-76
2022/10/30 15:13:19;;;;;;;42.13;16.92;;;24.70;91.20;;;;;;4983323;28;20309;-75
2022/10/30 15:15:47;;;;;;;54.28;19.83;;;24.40;91.00;;;;;;4983900;28;20034;-75
2022/10/30 15:18:19;;;;;;;19.98;9.00;;;24.30;90.60;;;;;;4983866;28;20238;-75
2022/10/30 15:20:51;;;;;;;12.02;6.18;;;24.20;90.90;;;;;;4983615;28;20046;-74
2022/10/30 15:23:23;;;;;;;14.50;6.32;;;24.00;91.40;;;;;;4983374;28;20066;-76
2022/10/30 15:25:52;;;;;;;23.95;10.13;;;24.00;90.50;;;;;;4983501;28;20034;-74
2022/10/30 15:28:20;;;;;;;12.20;5.75;;;23.80;90.20;;;;;;4983233;28;20320;-74
2022/10/30 15:31:04;;;;;;;9.77;4.43;;;23.80;90.20;;;;;;4983090;28;20050;-73
2022/10/30 15:33:31;;;;;;;11.60;4.65;;;23.60;89.20;;;;;;4983056;28;20039;-73
2022/10/30 15:35:58;;;;;;;10.57;4.93;;;23.30;90.10;;;;;;4966023;28;20046;-73
2022/10/30 15:38:24;;;;;;;11.35;5.40;;;23.00;90.70;;;;;;4968012;28;20035;-74
2022/10/30 15:40:54;;;;;;;10.77;5.18;;;22.90;91.10;;;;;;4967616;28;20046;-73
2022/10/30 15:43:23;;;;;;;12.20;5.20;;;22.70;91.40;;;;;;4967828;28;20038;-73
2022/10/30 15:45:54;;;;;;;14.77;6.70;;;22.50;91.70;;;;;;4968590;28;20324;-74
2022/10/30 15:48:27;;;;;;;22.63;11.48;;;22.30;92.50;;;;;;4987196;28;20035;-75
2022/10/30 15:51:09;;;;;;;20.40;8.40;;;22.10;92.30;;;;;;4987024;28;20277;-73
2022/10/30 15:53:58;;;;;;;19.15;7.07;;;22.00;93.40;;;;;;4987072;28;20019;-73
2022/10/30 15:56:37;;;;;;;;;;;21.90;93.30;;;;;;4987071;28;20054;-74
2022/10/30 15:59:15;;;;;;;16.13;6.00;;;21.70;93.20;;;;;;4986484;28;19949;-72
2022/10/30 16:01:45;;;;;;;21.47;9.50;;;21.50;93.80;;;;;;4986429;28;20086;-73
2022/10/30 16:04:15;;;;;;;18.35;9.27;;;21.30;94.20;;;;;;4968916;28;20225;-72
2022/10/30 16:06:55;;;;;;;18.63;10.07;;;21.10;94.70;;;;;;4969573;28;20030;-74
2022/10/30 16:09:21;;;;;;;14.80;8.20;;;21.00;95.20;;;;;;4986285;28;20038;-73
2022/10/30 16:11:48;;;;;;;11.32;5.50;;;20.70;95.60;;;;;;4983474;28;20046;-72
2022/10/30 16:14:21;;;;;;;14.35;5.57;;;20.50;96.30;;;;;;4980041;28;20027;-74
2022/10/30 16:16:47;;;;;;;13.77;6.22;;;20.30;97.20;;;;;;4984897;28;20275;-73
2022/10/30 16:19:43;;;;;;;13.77;6.75;;;20.20;97.70;;;;;;4967689;28;20241;-72
2022/10/30 16:22:14;;;;;;;12.13;4.88;;;20.00;98.20;;;;;;4978295;28;20035;-76
2022/10/30 16:24:40;;;;;;;13.70;5.70;;;19.80;98.80;;;;;;4965754;28;20035;-75
2022/10/30 16:27:13;;;;;;;11.00;5.55;;;19.70;99.30;;;;;;4965345;28;20042;-74
2022/10/30 16:29:39;;;;;;;11.80;6.38;;;19.60;99.90;;;;;;4975125;28;20220;-73
2022/10/30 16:32:16;;;;;;;14.27;6.20;;;19.60;99.90;;;;;;4965442;28;20039;-76
2022/10/30 16:34:43;;;;;;;13.50;7.13;;;19.50;99.90;;;;;;4970214;28;20225;-75
2022/10/30 16:37:22;;;;;;;11.00;6.10;;;19.40;99.90;;;;;;4971251;28;20030;-74
2022/10/30 16:39:50;;;;;;;16.38;7.60;;;19.20;99.90;;;;;;4967712;28;20051;-74
2022/10/30 16:42:21;;;;;;;13.63;7.10;;;19.10;99.90;;;;;;4984506;28;20054;-75
2022/10/30 16:45:09;;;;;;;14.63;7.68;;;18.90;99.90;;;;;;4967880;28;20031;-77
2022/10/30 16:47:42;;;;;;;13.70;7.15;;;18.80;99.90;;;;;;4975164;28;20043;-75
2022/10/30 16:50:14;;;;;;;13.75;7.88;;;18.70;99.90;;;;;;4964571;29;20039;-78
2022/10/30 16:52:41;;;;;;;13.60;7.18;;;18.60;99.90;;;;;;4966413;28;20031;-74
2022/10/30 16:55:18;;;;;;;12.30;6.97;;;18.40;99.90;;;;;;4965673;28;20083;-74
2022/10/30 16:57:47;;;;;;;16.38;8.02;;;18.30;99.90;;;;;;4966846;28;20027;-75
2022/10/30 17:00:25;;;;;;;17.50;8.63;;;18.20;99.90;;;;;;4965533;28;20090;-76
2022/10/30 17:02:52;;;;;;;15.88;7.72;;;18.10;99.90;;;;;;4977798;28;20101;-74
2022/10/30 17:05:29;;;;;;;13.88;7.43;;;18.10;99.90;;;;;;4984252;28;20026;-76
2022/10/30 17:08:04;;;;;;;13.33;7.43;;;18.10;99.90;;;;;;4984361;28;20038;-74
2022/10/30 17:10:32;;;;;;;13.00;8.13;;;18.00;99.90;;;;;;4984934;28;20034;-75
2022/10/30 17:13:36;;;;;;;11.88;6.95;;;17.90;99.90;;;;;;4985299;28;20105;-78
2022/10/30 17:16:23;;;;;;;16.08;8.35;;;17.80;99.90;;;;;;4983724;28;20027;-73
2022/10/30 17:18:54;;;;;;;16.13;10.40;;;17.70;99.90;;;;;;4984328;28;20606;-75
2022/10/30 17:21:41;;;;;;;17.55;9.50;;;17.60;99.90;;;;;;4984055;28;20038;-76
2022/10/30 17:24:24;;;;;;;10.50;6.40;;;17.50;99.90;;;;;;4983425;28;20089;-76
2022/10/30 17:26:55;;;;;;;12.02;5.85;;;17.40;99.90;;;;;;4984695;28;20046;-74
2022/10/30 17:29:36;;;;;;;12.57;5.80;;;17.30;99.90;;;;;;4984387;28;20324;-75
2022/10/30 17:32:19;;;;;;;10.43;5.65;;;17.20;99.90;;;;;;4983055;28;20047;-76
2022/10/30 17:34:45;;;;;;;11.48;6.20;;;17.20;99.90;;;;;;4982425;28;20034;-75
2022/10/30 17:37:11;;;;;;;13.85;6.97;;;17.20;99.90;;;;;;4983391;28;20065;-74
2022/10/30 17:39:37;;;;;;;12.43;7.00;;;17.10;99.90;;;;;;4966533;28;20308;-75
2022/10/30 17:42:03;;;;;;;13.13;8.02;;;17.10;99.90;;;;;;4966674;28;20074;-76
2022/10/30 17:44:33;;;;;;;15.38;8.52;;;17.10;99.90;;;;;;4983291;28;20331;-76
2022/10/30 17:47:00;;;;;;;18.23;9.55;;;17.00;99.90;;;;;;4966656;28;20097;-75
2022/10/30 17:49:28;;;;;;;17.20;8.90;;;17.00;99.90;;;;;;4966521;28;20027;-77
2022/10/30 17:51:54;;;;;;;19.17;11.05;;;17.00;99.90;;;;;;4983577;28;20316;-74
2022/10/30 17:54:19;;;;;;;25.85;11.45;;;16.90;99.90;;;;;;4983178;28;20346;-76
2022/10/30 17:56:45;;;;;;;19.58;10.95;;;16.80;99.90;;;;;;4965902;28;20031;-75
2022/10/30 17:59:11;;;;;;;18.95;10.52;;;16.80;99.90;;;;;;4982719;28;20037;-75
2022/10/30 18:01:37;;;;;;;25.17;11.75;;;16.70;99.90;;;;;;4981964;28;20026;-74
2022/10/30 18:04:09;;;;;;;20.75;11.20;;;16.60;99.90;;;;;;4982907;28;20030;-75
2022/10/30 18:06:35;;;;;;;18.48;9.77;;;16.40;99.90;;;;;;4983294;28;20035;-75
2022/10/30 18:09:01;;;;;;;18.25;9.75;;;16.30;99.90;;;;;;4983056;28;20027;-75
2022/10/30 18:11:27;;;;;;;15.25;9.40;;;16.20;99.90;;;;;;4973679;28;20061;-74
2022/10/30 18:13:55;;;;;;;17.60;9.70;;;16.20;99.90;;;;;;4965627;28;20264;-75
2022/10/30 18:16:21;;;;;;;15.32;9.15;;;16.10;99.90;;;;;;4982693;28;20352;-75
2022/10/30 18:18:47;;;;;;;14.63;8.18;;;16.10;99.90;;;;;;4965992;28;20039;-75
2022/10/30 18:21:14;;;;;;;18.92;10.98;;;16.10;99.90;;;;;;4982579;28;20031;-74
2022/10/30 18:23:40;;;;;;;20.42;10.90;;;16.10;99.90;;;;;;4982817;28;20041;-72
2022/10/30 18:26:12;;;;;;;18.50;10.60;;;16.00;99.90;;;;;;4982583;28;20213;-74
2022/10/30 18:28:38;;;;;;;18.95;9.07;;;16.00;99.90;;;;;;4982544;28;20038;-74
2022/10/30 18:31:03;;;;;;;19.00;9.57;;;16.00;99.90;;;;;;4982533;28;20023;-75
2022/10/30 18:33:29;;;;;;;18.67;9.05;;;16.00;99.90;;;;;;4984175;28;20093;-74
2022/10/30 18:35:58;;;;;;;18.67;9.07;;;16.00;99.90;;;;;;4966628;28;20034;-75
2022/10/30 18:38:24;;;;;;;17.10;9.27;;;16.00;99.90;;;;;;4982434;28;20031;-74
2022/10/30 18:40:50;;;;;;;17.20;9.05;;;15.90;99.90;;;;;;4982766;28;20098;-74
2022/10/30 18:43:16;;;;;;;17.80;9.00;;;15.90;99.90;;;;;;4982276;28;20054;-73
2022/10/30 18:45:42;;;;;;;20.35;9.52;;;15.80;99.90;;;;;;4981991;28;20037;-75
2022/10/30 18:48:10;;;;;;;16.95;9.43;;;15.80;99.90;;;;;;4981758;28;20023;-75
2022/10/30 18:50:36;;;;;;;18.90;9.82;;;15.70;99.90;;;;;;4982321;28;20027;-74
2022/10/30 18:53:05;;;;;;;18.63;9.82;;;15.70;99.90;;;;;;4982232;28;20344;-76
2022/10/30 18:55:39;;;;;;;17.90;9.88;;;15.60;99.90;;;;;;4982108;28;20186;-74
2022/10/30 18:58:06;;;;;;;22.20;10.40;;;15.60;99.90;;;;;;4964872;28;20035;-74
2022/10/30 19:00:32;;;;;;;21.38;11.52;;;15.50;99.90;;;;;;4982288;28;20097;-75
2022/10/30 19:02:59;;;;;;;20.25;12.38;;;15.50;99.90;;;;;;4982236;28;20058;-75
2022/10/30 19:05:34;;;;;;;20.73;10.45;;;15.40;99.90;;;;;;4981654;28;20101;-74
2022/10/30 19:08:01;;;;;;;20.30;11.25;;;15.30;99.90;;;;;;4982184;28;20371;-73
2022/10/30 19:10:29;;;;;;;20.63;10.43;;;15.30;99.90;;;;;;4964165;28;20031;-77
2022/10/30 19:13:07;;;;;;;20.47;9.07;;;15.20;99.90;;;;;;4981518;28;20041;-74
2022/10/30 19:15:38;;;;;;;16.80;7.63;;;15.10;99.90;;;;;;4982158;28;20442;-73
2022/10/30 19:18:04;;;;;;;14.75;7.47;;;15.00;99.90;;;;;;4981644;28;20026;-74
2022/10/30 19:20:32;;;;;;;13.77;7.47;;;15.00;99.90;;;;;;4964838;28;20065;-74
2022/10/30 19:23:00;;;;;;;17.47;8.63;;;14.90;99.90;;;;;;4981997;28;20054;-74
2022/10/30 19:25:33;;;;;;;18.33;8.50;;;14.90;99.90;;;;;;4980306;28;20093;-74